MSC Ludovica — HPAF — position and weather

sailwx.info

Track history (hours):
 
Tides and Currents Weather Stations Pressure Air Temp Water Temp Dewpoint Dewpoint Depression Visibility Wind Speed Wind Dir Waves Ship Positions

MSC Ludovica

Last reported at 2015-May-20 00:33 UTC. Time now 2015-May-24 21:23 UTC.
Position N 49°57' W 003°08'.

Length 301 m; draft 12.2 m.

Type: Ship. MMSI: 351248000.

Date/timePositionNaut miles runAvg speedWind from/ knotsBaromVisibWave heightAir tempDewpointWater temp
2015-May-20 00:33N 49°57' W 003°08'8316.4
2015-May-19 19:31N 49°51' W 000°60'1617.1
2015-May-19 18:33N 49°42' W 000°38'1919.2
2015-May-19 17:33N 49°33' W 000°12'1313.3
2015-May-19 16:34N 49°28' E 000°07'1 1.1
2015-May-19 15:31N 49°28' E 000°09'0 0.0
2015-May-19 14:31N 49°28' E 000°09'0 0.0
2015-May-19 13:31N 49°28' E 000°09'0 0.0
2015-May-19 12:31N 49°28' E 000°09'0 0.0
2015-May-19 11:31N 49°28' E 000°09'0 0.0
2015-May-19 10:31N 49°28' E 000°09'0 0.0
2015-May-19 09:31N 49°28' E 000°09'0 0.0
2015-May-19 08:31N 49°28' E 000°09'0 0.0
2015-May-19 07:31N 49°28' E 000°09'0 0.0
2015-May-19 06:31N 49°28' E 000°09'0 0.0
2015-May-19 05:31N 49°28' E 000°09'0 0.0
2015-May-19 04:31N 49°28' E 000°09'0 0.0
2015-May-19 03:31N 49°28' E 000°09'0 0.0
2015-May-19 02:31N 49°28' E 000°09'3 3.3
2015-May-19 01:33N 49°29' E 000°04'1111.2
2015-May-19 00:34N 49°34' W 000°11'5 4.7
2015-May-18 23:33N 49°38' W 000°11'1010.5
2015-May-18 22:33N 49°49' W 000°11'4912.3
2015-May-18 18:33N 50°34' E 000°21'1515.4
2015-May-18 17:34N 50°41' E 000°42'1716.3
2015-May-18 16:33N 50°51' E 001°03'1615.8
2015-May-18 15:34N 51°01' E 001°21'1413.5
2015-May-18 14:33N 51°09' E 001°39'1212.2
2015-May-18 13:33N 51°19' E 001°50'1313.0
2015-May-18 12:33N 51°30' E 002°01'1413.8
2015-May-18 11:33N 51°41' E 002°16'7815.4
2015-May-18 06:30N 52°41' E 003°35'1616.4
2015-May-18 05:33N 52°53' E 003°52'1615.5
2015-May-18 04:33N 53°04' E 004°10'1614.3
2015-May-18 03:27N 53°16' E 004°28'1315.2
2015-May-18 02:33N 53°28' E 004°37'1616.3
2015-May-18 01:33N 53°34' E 005°02'1717.5
2015-May-18 00:33N 53°40' E 005°30'1717.4
2015-May-17 23:33N 53°45' E 005°58'1716.8
2015-May-17 22:33N 53°51' E 006°25'1815.9
2015-May-17 21:27N 53°55' E 006°54'1415.2
2015-May-17 20:33N 53°58' E 007°17'1414.1
2015-May-17 19:34N 53°59' E 007°41'1110.8
2015-May-17 18:33N 53°52' E 007°55'1414.2
2015-May-17 17:33N 53°44' E 008°15'1313.2
2015-May-17 16:33N 53°35' E 008°32'1 0.5
2015-May-17 15:32N 53°35' E 008°32'0 0.0
2015-May-17 14:32N 53°35' E 008°32'0 0.0
2015-May-17 13:32N 53°35' E 008°32'0 0.0
2015-May-17 12:31N 53°35' E 008°32'0 0.0
2015-May-17 11:31N 53°35' E 008°32'0 0.0
2015-May-17 10:31N 53°35' E 008°32'0 0.0
2015-May-17 09:31N 53°35' E 008°32'0 0.0
2015-May-17 08:31N 53°35' E 008°32'0 0.0
2015-May-17 07:31N 53°35' E 008°32'0 0.0
2015-May-17 06:31N 53°35' E 008°32'0 0.0
2015-May-17 05:31N 53°35' E 008°32'0 0.0
2015-May-17 04:31N 53°35' E 008°32'0 0.0
2015-May-17 03:28N 53°35' E 008°32'0 0.0
2015-May-17 02:31N 53°35' E 008°32'0 0.0
2015-May-17 01:31N 53°35' E 008°32'0 0.0
2015-May-17 00:31N 53°35' E 008°32'0 0.0
2015-May-16 23:31N 53°35' E 008°32'0 0.0
2015-May-16 22:31N 53°35' E 008°32'0 0.0
2015-May-16 21:31N 53°35' E 008°32'0 0.0
2015-May-16 20:31N 53°35' E 008°32'0 0.0
2015-May-16 19:31N 53°35' E 008°32'0 0.0
2015-May-16 18:31N 53°35' E 008°32'0 0.0
2015-May-16 17:31N 53°35' E 008°32'0 0.0
2015-May-16 16:31N 53°35' E 008°32'0 0.0
2015-May-16 15:28N 53°35' E 008°32'0 0.0
2015-May-16 14:32N 53°35' E 008°32'0 0.0
2015-May-16 13:31N 53°35' E 008°32'0 0.0
2015-May-16 12:31N 53°35' E 008°32'0 0.0
2015-May-16 11:31N 53°35' E 008°32'0 0.0
2015-May-16 10:31N 53°35' E 008°32'0 0.0
2015-May-16 09:31N 53°35' E 008°32'0 0.0
2015-May-16 08:31N 53°35' E 008°32'0 0.0
2015-May-16 07:31N 53°35' E 008°32'5 4.9
2015-May-16 06:34N 53°38' E 008°27'1918.7
2015-May-16 05:33N 53°50' E 008°03'1313.2
2015-May-16 04:33N 53°54' E 007°41'8 8.1
2015-May-16 03:34N 53°54' E 007°27'2116.7
2015-May-16 02:20N 53°50' E 006°53'1616.7
2015-May-16 01:24N 53°46' E 006°27'1719.8
2015-May-16 00:34N 53°41' E 006°01'2020.0
2015-May-15 23:34N 53°35' E 005°29'2019.7
2015-May-15 22:34N 53°29' E 004°57'1918.7
2015-May-15 21:34N 53°15' E 004°36'2019.9
2015-May-15 20:33N 52°57' E 004°20'2019.8
2015-May-15 19:34N 52°40' E 004°04'1918.9
2015-May-15 18:34N 52°23' E 003°53'1919.4
2015-May-15 17:33N 52°03' E 003°56'6 6.1
2015-May-15 16:33N 51°58' E 004°02'2 1.5
2015-May-15 15:32N 51°57' E 004°00'0 0.0
2015-May-15 14:32N 51°57' E 004°00'0 0.0
2015-May-15 13:32N 51°57' E 004°00'0 0.0
2015-May-15 12:32N 51°57' E 004°00'0 0.0
2015-May-15 11:32N 51°57' E 004°00'0 0.0
2015-May-15 10:32N 51°57' E 004°00'0 0.0
2015-May-15 09:32N 51°57' E 004°00'0 0.0
2015-May-15 08:32N 51°57' E 004°00'0 0.0
2015-May-15 07:32N 51°57' E 004°00'0 0.0
2015-May-15 06:32N 51°57' E 004°00'0 0.0
2015-May-15 05:32N 51°57' E 004°00'0 0.0
2015-May-15 04:32N 51°57' E 004°00'0 0.0
2015-May-15 03:32N 51°57' E 004°00'0 0.0
2015-May-15 02:32N 51°57' E 004°00'0 0.0
2015-May-15 01:32N 51°57' E 004°00'0 0.0
2015-May-15 00:32N 51°57' E 004°00'0 0.0
2015-May-14 23:32N 51°57' E 004°00'0 0.0
2015-May-14 22:32N 51°57' E 004°00'0 0.0
2015-May-14 21:32N 51°57' E 004°00'0 0.0
2015-May-14 20:32N 51°57' E 004°00'0 0.0
2015-May-14 19:32N 51°57' E 004°00'0 0.0
2015-May-14 18:32N 51°57' E 004°00'0 0.0
2015-May-14 17:32N 51°57' E 004°00'0 0.0
2015-May-14 16:32N 51°57' E 004°00'0 0.0
2015-May-14 15:33N 51°57' E 004°00'0 0.0
2015-May-14 14:32N 51°57' E 004°00'0 0.0
2015-May-14 13:32N 51°57' E 004°00'0 0.0
2015-May-14 12:29N 51°57' E 004°00'0 0.0
2015-May-14 11:32N 51°57' E 004°00'1 1.5
2015-May-14 10:33N 51°58' E 004°01'3 3.0
2015-May-14 09:33N 52°00' E 003°57'1110.6
2015-May-14 08:33N 51°58' E 003°40'10 9.8
2015-May-14 07:34N 51°56' E 003°25'5317.6
2015-May-14 04:33N 51°51' E 001°60'1212.1
2015-May-14 03:33N 51°51' E 001°40'1110.5
2015-May-14 02:33N 51°56' E 001°25'5 4.5
2015-May-14 01:31N 51°57' E 001°18'0 0.0
2015-May-14 00:31N 51°57' E 001°18'0 0.0
2015-May-13 23:31N 51°57' E 001°18'0 0.0
2015-May-13 22:31N 51°57' E 001°18'0 0.0
2015-May-13 21:31N 51°57' E 001°18'0 0.0
2015-May-13 20:31N 51°57' E 001°18'0 0.0
2015-May-13 19:28N 51°57' E 001°18'0 0.0
2015-May-13 18:31N 51°57' E 001°18'0 0.0
2015-May-13 17:31N 51°57' E 001°18'0 0.0
2015-May-13 16:31N 51°57' E 001°18'0 0.0
2015-May-13 15:31N 51°57' E 001°18'0 0.0
2015-May-13 14:31N 51°57' E 001°18'0 0.0
2015-May-13 13:31N 51°57' E 001°18'0 0.0
2015-May-13 12:31N 51°57' E 001°18'0 0.0
2015-May-13 11:33N 51°57' E 001°18'0 0.0
2015-May-13 10:33N 51°57' E 001°18'0 0.0
2015-May-13 09:33N 51°57' E 001°18'0 0.0
2015-May-13 08:33N 51°57' E 001°18'0 0.1
2015-May-13 07:33N 51°57' E 001°18'1010.2
2015-May-13 06:33N 51°54' E 001°34'7 6.7
2015-May-13 05:33N 51°51' E 001°43'3 3.2
2015-May-13 04:33N 51°50' E 001°48'5 5.2
2015-May-13 03:33N 51°45' E 001°49'6 6.0
2015-May-13 02:33N 51°39' E 001°49'9 9.5
2015-May-13 01:33N 51°30' E 001°54'1312.6
2015-May-13 00:33N 51°22' E 002°10'1212.4
2015-May-12 23:34N 51°23' E 002°30'1111.4
2015-May-12 22:34N 51°25' E 002°48'1616.2
2015-May-12 21:33N 51°25' E 003°14'1413.8
2015-May-12 20:33N 51°26' E 003°36'9 9.1
2015-May-12 19:33N 51°21' E 003°48'9 9.0
2015-May-12 18:33N 51°23' E 004°02'9 9.4
2015-May-12 17:33N 51°21' E 004°17'0 0.0
2015-May-12 16:33N 51°21' E 004°17'1 0.5
2015-May-12 15:34N 51°21' E 004°18'2 2.0
2015-May-12 14:34N 51°20' E 004°21'0 0.0
2015-May-12 13:32N 51°20' E 004°21'0 0.0
2015-May-12 12:29N 51°20' E 004°21'0 0.0
2015-May-12 11:32N 51°20' E 004°21'0 0.0
2015-May-12 10:29N 51°20' E 004°21'0 0.0
2015-May-12 09:32N 51°20' E 004°21'0 0.0
2015-May-12 08:32N 51°20' E 004°21'0 0.0
2015-May-12 07:32N 51°20' E 004°21'0 0.0
2015-May-12 06:32N 51°20' E 004°21'0 0.0
2015-May-12 05:32N 51°20' E 004°21'0 0.0
2015-May-12 04:32N 51°20' E 004°21'0 0.0
2015-May-12 03:29N 51°20' E 004°21'0 0.0
2015-May-12 02:29N 51°20' E 004°21'0 0.0
2015-May-12 01:32N 51°20' E 004°21'0 0.0
2015-May-12 00:29N 51°20' E 004°21'0 0.0
2015-May-11 23:32N 51°20' E 004°21'0 0.0
2015-May-11 22:32N 51°20' E 004°21'0 0.0
2015-May-11 21:32N 51°20' E 004°21'0 0.0
2015-May-11 20:29N 51°20' E 004°21'0 0.0
2015-May-11 19:32N 51°20' E 004°21'0 0.0
2015-May-11 18:32N 51°20' E 004°21'0 0.0
2015-May-11 17:26N 51°20' E 004°21'0 0.0
2015-May-11 16:32N 51°20' E 004°21'0 0.0
2015-May-11 15:29N 51°20' E 004°21'0 0.0
2015-May-11 14:32N 51°20' E 004°21'0 0.0
2015-May-11 13:32N 51°20' E 004°21'0 0.0
2015-May-11 12:32N 51°20' E 004°21'0 0.0
2015-May-11 11:32N 51°20' E 004°21'0 0.0
2015-May-11 10:32N 51°20' E 004°21'0 0.0
2015-May-11 09:26N 51°20' E 004°21'0 0.0
2015-May-11 08:32N 51°20' E 004°21'0 0.0
2015-May-11 07:32N 51°20' E 004°21'0 0.0
2015-May-11 06:32N 51°20' E 004°21'0 0.0
2015-May-11 05:32N 51°20' E 004°21'1 1.1
2015-May-11 04:33N 51°19' E 004°19'2 1.5
2015-May-11 03:33N 51°21' E 004°17'3 3.0
2015-May-11 02:33N 51°22' E 004°13'10 9.9
2015-May-11 01:33N 51°25' E 003°58'1110.7
2015-May-11 00:33N 51°26' E 003°41'1313.0
2015-May-10 23:33N 51°24' E 003°20'1414.4
2015-May-10 22:33N 51°25' E 002°57'1111.5
2015-May-10 21:33N 51°22' E 002°39'3 2.8
2015-May-10 20:34N 51°22' E 002°34'7 6.8
2015-May-10 19:34N 51°20' E 002°24'8 8.2
2015-May-10 18:33N 51°16' E 002°13'4 3.8
2015-May-10 17:33N 51°14' E 002°07'1010.4
2015-May-10 16:34N 51°10' E 001°53'1616.4
2015-May-10 15:33N 50°59' E 001°32'1716.8
2015-May-10 14:34N 50°44' E 001°23'2015.9
2015-May-10 13:19N 50°31' E 000°59'1620.0
2015-May-10 12:32N 50°27' E 000°35'8420.7
2015-May-10 08:27N 50°05' W 001°33'1718.5
2015-May-10 07:31N 49°60' W 001°58'  
Track history (hours):
 
Tides and Currents Weather Stations Pressure Air Temp Water Temp Dewpoint Dewpoint Depression Visibility Wind Speed Wind Dir Waves Ship Positions

MSC Ludovica

Last reported at 2015-May-20 00:33 UTC. Time now 2015-May-24 21:23 UTC.
Position N 49°57' W 003°08'.

Length 301 m; draft 12.2 m.

Type: Ship. MMSI: 351248000.

Date/timePositionNaut miles runAvg speedWind from/ knotsBaromVisibWave heightAir tempDewpointWater temp
2015-May-20 00:33N 49°57' W 003°08'8316.4
2015-May-19 19:31N 49°51' W 000°60'1617.1
2015-May-19 18:33N 49°42' W 000°38'1919.2
2015-May-19 17:33N 49°33' W 000°12'1313.3
2015-May-19 16:34N 49°28' E 000°07'1 1.1
2015-May-19 15:31N 49°28' E 000°09'0 0.0
2015-May-19 14:31N 49°28' E 000°09'0 0.0
2015-May-19 13:31N 49°28' E 000°09'0 0.0
2015-May-19 12:31N 49°28' E 000°09'0 0.0
2015-May-19 11:31N 49°28' E 000°09'0 0.0
2015-May-19 10:31N 49°28' E 000°09'0 0.0
2015-May-19 09:31N 49°28' E 000°09'0 0.0
2015-May-19 08:31N 49°28' E 000°09'0 0.0
2015-May-19 07:31N 49°28' E 000°09'0 0.0
2015-May-19 06:31N 49°28' E 000°09'0 0.0
2015-May-19 05:31N 49°28' E 000°09'0 0.0
2015-May-19 04:31N 49°28' E 000°09'0 0.0
2015-May-19 03:31N 49°28' E 000°09'0 0.0
2015-May-19 02:31N 49°28' E 000°09'3 3.3
2015-May-19 01:33N 49°29' E 000°04'1111.2
2015-May-19 00:34N 49°34' W 000°11'5 4.7
2015-May-18 23:33N 49°38' W 000°11'1010.5
2015-May-18 22:33N 49°49' W 000°11'4912.3
2015-May-18 18:33N 50°34' E 000°21'1515.4
2015-May-18 17:34N 50°41' E 000°42'1716.3
2015-May-18 16:33N 50°51' E 001°03'1615.8
2015-May-18 15:34N 51°01' E 001°21'1413.5
2015-May-18 14:33N 51°09' E 001°39'1212.2
2015-May-18 13:33N 51°19' E 001°50'1313.0
2015-May-18 12:33N 51°30' E 002°01'1413.8
2015-May-18 11:33N 51°41' E 002°16'7815.4
2015-May-18 06:30N 52°41' E 003°35'1616.4
2015-May-18 05:33N 52°53' E 003°52'1615.5
2015-May-18 04:33N 53°04' E 004°10'1614.3
2015-May-18 03:27N 53°16' E 004°28'1315.2
2015-May-18 02:33N 53°28' E 004°37'1616.3
2015-May-18 01:33N 53°34' E 005°02'1717.5
2015-May-18 00:33N 53°40' E 005°30'1717.4
2015-May-17 23:33N 53°45' E 005°58'1716.8
2015-May-17 22:33N 53°51' E 006°25'1815.9
2015-May-17 21:27N 53°55' E 006°54'1415.2
2015-May-17 20:33N 53°58' E 007°17'1414.1
2015-May-17 19:34N 53°59' E 007°41'1110.8
2015-May-17 18:33N 53°52' E 007°55'1414.2
2015-May-17 17:33N 53°44' E 008°15'1313.2
2015-May-17 16:33N 53°35' E 008°32'1 0.5
2015-May-17 15:32N 53°35' E 008°32'0 0.0
2015-May-17 14:32N 53°35' E 008°32'0 0.0
2015-May-17 13:32N 53°35' E 008°32'0 0.0
2015-May-17 12:31N 53°35' E 008°32'0 0.0
2015-May-17 11:31N 53°35' E 008°32'0 0.0
2015-May-17 10:31N 53°35' E 008°32'0 0.0
2015-May-17 09:31N 53°35' E 008°32'0 0.0
2015-May-17 08:31N 53°35' E 008°32'0 0.0
2015-May-17 07:31N 53°35' E 008°32'0 0.0
2015-May-17 06:31N 53°35' E 008°32'0 0.0
2015-May-17 05:31N 53°35' E 008°32'0 0.0
2015-May-17 04:31N 53°35' E 008°32'0 0.0
2015-May-17 03:28N 53°35' E 008°32'0 0.0
2015-May-17 02:31N 53°35' E 008°32'0 0.0
2015-May-17 01:31N 53°35' E 008°32'0 0.0
2015-May-17 00:31N 53°35' E 008°32'0 0.0
2015-May-16 23:31N 53°35' E 008°32'0 0.0
2015-May-16 22:31N 53°35' E 008°32'0 0.0
2015-May-16 21:31N 53°35' E 008°32'0 0.0
2015-May-16 20:31N 53°35' E 008°32'0 0.0
2015-May-16 19:31N 53°35' E 008°32'0 0.0
2015-May-16 18:31N 53°35' E 008°32'0 0.0
2015-May-16 17:31N 53°35' E 008°32'0 0.0
2015-May-16 16:31N 53°35' E 008°32'0 0.0
2015-May-16 15:28N 53°35' E 008°32'0 0.0
2015-May-16 14:32N 53°35' E 008°32'0 0.0
2015-May-16 13:31N 53°35' E 008°32'0 0.0
2015-May-16 12:31N 53°35' E 008°32'0 0.0
2015-May-16 11:31N 53°35' E 008°32'0 0.0
2015-May-16 10:31N 53°35' E 008°32'0 0.0
2015-May-16 09:31N 53°35' E 008°32'0 0.0
2015-May-16 08:31N 53°35' E 008°32'0 0.0
2015-May-16 07:31N 53°35' E 008°32'5 4.9
2015-May-16 06:34N 53°38' E 008°27'1918.7
2015-May-16 05:33N 53°50' E 008°03'1313.2
2015-May-16 04:33N 53°54' E 007°41'8 8.1
2015-May-16 03:34N 53°54' E 007°27'2116.7
2015-May-16 02:20N 53°50' E 006°53'1616.7
2015-May-16 01:24N 53°46' E 006°27'1719.8
2015-May-16 00:34N 53°41' E 006°01'2020.0
2015-May-15 23:34N 53°35' E 005°29'2019.7
2015-May-15 22:34N 53°29' E 004°57'1918.7
2015-May-15 21:34N 53°15' E 004°36'2019.9
2015-May-15 20:33N 52°57' E 004°20'2019.8
2015-May-15 19:34N 52°40' E 004°04'1918.9
2015-May-15 18:34N 52°23' E 003°53'1919.4
2015-May-15 17:33N 52°03' E 003°56'6 6.1
2015-May-15 16:33N 51°58' E 004°02'2 1.5
2015-May-15 15:32N 51°57' E 004°00'0 0.0
2015-May-15 14:32N 51°57' E 004°00'0 0.0
2015-May-15 13:32N 51°57' E 004°00'0 0.0
2015-May-15 12:32N 51°57' E 004°00'0 0.0
2015-May-15 11:32N 51°57' E 004°00'0 0.0
2015-May-15 10:32N 51°57' E 004°00'0 0.0
2015-May-15 09:32N 51°57' E 004°00'0 0.0
2015-May-15 08:32N 51°57' E 004°00'0 0.0
2015-May-15 07:32N 51°57' E 004°00'0 0.0
2015-May-15 06:32N 51°57' E 004°00'0 0.0
2015-May-15 05:32N 51°57' E 004°00'0 0.0
2015-May-15 04:32N 51°57' E 004°00'0 0.0
2015-May-15 03:32N 51°57' E 004°00'0 0.0
2015-May-15 02:32N 51°57' E 004°00'0 0.0
2015-May-15 01:32N 51°57' E 004°00'0 0.0
2015-May-15 00:32N 51°57' E 004°00'0 0.0
2015-May-14 23:32N 51°57' E 004°00'0 0.0
2015-May-14 22:32N 51°57' E 004°00'0 0.0
2015-May-14 21:32N 51°57' E 004°00'0 0.0
2015-May-14 20:32N 51°57' E 004°00'0 0.0
2015-May-14 19:32N 51°57' E 004°00'0 0.0
2015-May-14 18:32N 51°57' E 004°00'0 0.0
2015-May-14 17:32N 51°57' E 004°00'0 0.0
2015-May-14 16:32N 51°57' E 004°00'0 0.0
2015-May-14 15:33N 51°57' E 004°00'0 0.0
2015-May-14 14:32N 51°57' E 004°00'0 0.0
2015-May-14 13:32N 51°57' E 004°00'0 0.0
2015-May-14 12:29N 51°57' E 004°00'0 0.0
2015-May-14 11:32N 51°57' E 004°00'1 1.5
2015-May-14 10:33N 51°58' E 004°01'3 3.0
2015-May-14 09:33N 52°00' E 003°57'1110.6
2015-May-14 08:33N 51°58' E 003°40'10 9.8
2015-May-14 07:34N 51°56' E 003°25'5317.6
2015-May-14 04:33N 51°51' E 001°60'1212.1
2015-May-14 03:33N 51°51' E 001°40'1110.5
2015-May-14 02:33N 51°56' E 001°25'5 4.5
2015-May-14 01:31N 51°57' E 001°18'0 0.0
2015-May-14 00:31N 51°57' E 001°18'0 0.0
2015-May-13 23:31N 51°57' E 001°18'0 0.0
2015-May-13 22:31N 51°57' E 001°18'0 0.0
2015-May-13 21:31N 51°57' E 001°18'0 0.0
2015-May-13 20:31N 51°57' E 001°18'0 0.0
2015-May-13 19:28N 51°57' E 001°18'0 0.0
2015-May-13 18:31N 51°57' E 001°18'0 0.0
2015-May-13 17:31N 51°57' E 001°18'0 0.0
2015-May-13 16:31N 51°57' E 001°18'0 0.0
2015-May-13 15:31N 51°57' E 001°18'0 0.0
2015-May-13 14:31N 51°57' E 001°18'0 0.0
2015-May-13 13:31N 51°57' E 001°18'0 0.0
2015-May-13 12:31N 51°57' E 001°18'0 0.0
2015-May-13 11:33N 51°57' E 001°18'0 0.0
2015-May-13 10:33N 51°57' E 001°18'0 0.0
2015-May-13 09:33N 51°57' E 001°18'0 0.0
2015-May-13 08:33N 51°57' E 001°18'0 0.1
2015-May-13 07:33N 51°57' E 001°18'1010.2
2015-May-13 06:33N 51°54' E 001°34'7 6.7
2015-May-13 05:33N 51°51' E 001°43'3 3.2
2015-May-13 04:33N 51°50' E 001°48'5 5.2
2015-May-13 03:33N 51°45' E 001°49'6 6.0
2015-May-13 02:33N 51°39' E 001°49'9 9.5
2015-May-13 01:33N 51°30' E 001°54'1312.6
2015-May-13 00:33N 51°22' E 002°10'1212.4
2015-May-12 23:34N 51°23' E 002°30'1111.4
2015-May-12 22:34N 51°25' E 002°48'1616.2
2015-May-12 21:33N 51°25' E 003°14'1413.8
2015-May-12 20:33N 51°26' E 003°36'9 9.1
2015-May-12 19:33N 51°21' E 003°48'9 9.0
2015-May-12 18:33N 51°23' E 004°02'9 9.4
2015-May-12 17:33N 51°21' E 004°17'0 0.0
2015-May-12 16:33N 51°21' E 004°17'1 0.5
2015-May-12 15:34N 51°21' E 004°18'2 2.0
2015-May-12 14:34N 51°20' E 004°21'0 0.0
2015-May-12 13:32N 51°20' E 004°21'0 0.0
2015-May-12 12:29N 51°20' E 004°21'0 0.0
2015-May-12 11:32N 51°20' E 004°21'0 0.0
2015-May-12 10:29N 51°20' E 004°21'0 0.0
2015-May-12 09:32N 51°20' E 004°21'0 0.0
2015-May-12 08:32N 51°20' E 004°21'0 0.0
2015-May-12 07:32N 51°20' E 004°21'0 0.0
2015-May-12 06:32N 51°20' E 004°21'0 0.0
2015-May-12 05:32N 51°20' E 004°21'0 0.0
2015-May-12 04:32N 51°20' E 004°21'0 0.0
2015-May-12 03:29N 51°20' E 004°21'0 0.0
2015-May-12 02:29N 51°20' E 004°21'0 0.0
2015-May-12 01:32N 51°20' E 004°21'0 0.0
2015-May-12 00:29N 51°20' E 004°21'0 0.0
2015-May-11 23:32N 51°20' E 004°21'0 0.0
2015-May-11 22:32N 51°20' E 004°21'0 0.0
2015-May-11 21:32N 51°20' E 004°21'0 0.0
2015-May-11 20:29N 51°20' E 004°21'0 0.0
2015-May-11 19:32N 51°20' E 004°21'0 0.0
2015-May-11 18:32N 51°20' E 004°21'0 0.0
2015-May-11 17:26N 51°20' E 004°21'0 0.0
2015-May-11 16:32N 51°20' E 004°21'0 0.0
2015-May-11 15:29N 51°20' E 004°21'0 0.0
2015-May-11 14:32N 51°20' E 004°21'0 0.0
2015-May-11 13:32N 51°20' E 004°21'0 0.0
2015-May-11 12:32N 51°20' E 004°21'0 0.0
2015-May-11 11:32N 51°20' E 004°21'0 0.0
2015-May-11 10:32N 51°20' E 004°21'0 0.0
2015-May-11 09:26N 51°20' E 004°21'0 0.0
2015-May-11 08:32N 51°20' E 004°21'0 0.0
2015-May-11 07:32N 51°20' E 004°21'0 0.0
2015-May-11 06:32N 51°20' E 004°21'0 0.0
2015-May-11 05:32N 51°20' E 004°21'1 1.1
2015-May-11 04:33N 51°19' E 004°19'2 1.5
2015-May-11 03:33N 51°21' E 004°17'3 3.0
2015-May-11 02:33N 51°22' E 004°13'10 9.9
2015-May-11 01:33N 51°25' E 003°58'1110.7
2015-May-11 00:33N 51°26' E 003°41'1313.0
2015-May-10 23:33N 51°24' E 003°20'1414.4
2015-May-10 22:33N 51°25' E 002°57'1111.5
2015-May-10 21:33N 51°22' E 002°39'3 2.8
2015-May-10 20:34N 51°22' E 002°34'7 6.8
2015-May-10 19:34N 51°20' E 002°24'8 8.2
2015-May-10 18:33N 51°16' E 002°13'4 3.8
2015-May-10 17:33N 51°14' E 002°07'1010.4
2015-May-10 16:34N 51°10' E 001°53'1616.4
2015-May-10 15:33N 50°59' E 001°32'1716.8
2015-May-10 14:34N 50°44' E 001°23'2015.9
2015-May-10 13:19N 50°31' E 000°59'1620.0
2015-May-10 12:32N 50°27' E 000°35'8420.7
2015-May-10 08:27N 50°05' W 001°33'1718.5
2015-May-10 07:31N 49°60' W 001°58'  

Dump ship's entire track history